KSMF/SMF METAR and TAF weather

Enter ICAO airport designator
Station Type Date Time Source
KSMF METAR 2019/08/22 19:53 UTC NOAA

KSMF 221953Z 31010KT 10SM FEW250 32/17 A2975 RMK AO2 SLP073 T03220167


Station Type Date Time Source
KSMF Decoded METAR 2019/08/22 19:53 UTC NOAA

Station name not available
Aug 22, 2019 - 03:53 PM EDT / 2019.08.22 1953 UTC
Wind: from the NW (310 degrees) at 12 MPH (10 KT):0
Visibility: 10 mile(s):0
Sky conditions: mostly clear
Temperature: 90.0 F (32.2 C)
Dew Point: 62.1 F (16.7 C)
Relative Humidity: 39%
Pressure (altimeter): 29.75 in. Hg (1007 hPa)
ob: KSMF 221953Z 31010KT 10SM FEW250 32/17 A2975 RMK AO2 SLP073 T03220167
cycle: 20

Station Type Date Time Source
KSMF TAF 2019/08/22 18:42 UTC NOAA

TAF KSMF 221740Z 2218/2318 32009KT P6SM SKC
FM230200 17006KT P6SM SKC

Example: see airport list